sensor_id;sensor_type;location;lat;lon;timestamp;P1;durP1;ratioP1;P2;durP2;ratioP2
16642;SDS011;8435;52.184;5.406;2023-09-12T00:00:40;28.27;;;25.30;;
16642;SDS011;8435;52.184;5.406;2023-09-12T00:03:07;30.75;;;27.25;;
16642;SDS011;8435;52.184;5.406;2023-09-12T00:05:34;29.15;;;25.58;;
16642;SDS011;8435;52.184;5.406;2023-09-12T00:08:01;30.42;;;27.23;;
16642;SDS011;8435;52.184;5.406;2023-09-12T00:10:29;29.52;;;26.52;;
16642;SDS011;8435;52.184;5.406;2023-09-12T00:12:57;30.10;;;26.90;;
16642;SDS011;8435;52.184;5.406;2023-09-12T00:15:25;29.08;;;25.98;;
16642;SDS011;8435;52.184;5.406;2023-09-12T00:17:52;30.27;;;26.55;;
16642;SDS011;8435;52.184;5.406;2023-09-12T00:20:19;27.50;;;24.40;;
16642;SDS011;8435;52.184;5.406;2023-09-12T00:22:46;26.73;;;23.92;;
16642;SDS011;8435;52.184;5.406;2023-09-12T00:25:13;29.58;;;26.38;;
16642;SDS011;8435;52.184;5.406;2023-09-12T00:27:40;29.05;;;25.88;;
16642;SDS011;8435;52.184;5.406;2023-09-12T00:30:08;28.65;;;25.58;;
16642;SDS011;8435;52.184;5.406;2023-09-12T00:32:36;29.50;;;26.30;;
16642;SDS011;8435;52.184;5.406;2023-09-12T00:35:05;30.23;;;26.95;;
16642;SDS011;8435;52.184;5.406;2023-09-12T00:37:32;26.55;;;23.75;;
16642;SDS011;8435;52.184;5.406;2023-09-12T00:39:59;28.17;;;25.08;;
16642;SDS011;8435;52.184;5.406;2023-09-12T00:42:26;27.77;;;24.65;;
16642;SDS011;8435;52.184;5.406;2023-09-12T00:44:52;27.73;;;24.60;;
16642;SDS011;8435;52.184;5.406;2023-09-12T00:47:21;30.15;;;26.73;;
16642;SDS011;8435;52.184;5.406;2023-09-12T00:49:49;28.58;;;25.23;;
16642;SDS011;8435;52.184;5.406;2023-09-12T00:52:17;27.80;;;24.92;;
16642;SDS011;8435;52.184;5.406;2023-09-12T00:54:46;30.38;;;27.10;;
16642;SDS011;8435;52.184;5.406;2023-09-12T00:57:13;28.27;;;25.23;;
16642;SDS011;8435;52.184;5.406;2023-09-12T00:59:40;28.65;;;25.55;;
16642;SDS011;8435;52.184;5.406;2023-09-12T01:02:07;29.50;;;26.30;;
16642;SDS011;8435;52.184;5.406;2023-09-12T01:04:36;28.17;;;25.38;;
16642;SDS011;8435;52.184;5.406;2023-09-12T01:07:03;27.23;;;24.42;;
16642;SDS011;8435;52.184;5.406;2023-09-12T01:09:31;27.00;;;24.10;;
16642;SDS011;8435;52.184;5.406;2023-09-12T01:12:00;27.45;;;24.63;;
16642;SDS011;8435;52.184;5.406;2023-09-12T01:14:27;29.45;;;26.38;;
16642;SDS011;8435;52.184;5.406;2023-09-12T01:16:54;29.10;;;25.65;;
16642;SDS011;8435;52.184;5.406;2023-09-12T01:19:22;29.08;;;26.02;;
16642;SDS011;8435;52.184;5.406;2023-09-12T01:22:00;28.65;;;25.55;;
16642;SDS011;8435;52.184;5.406;2023-09-12T01:24:52;26.77;;;23.90;;
16642;SDS011;8435;52.184;5.406;2023-09-12T01:27:40;27.42;;;24.52;;
16642;SDS011;8435;52.184;5.406;2023-09-12T01:30:11;30.17;;;26.55;;
16642;SDS011;8435;52.184;5.406;2023-09-12T01:32:43;31.10;;;26.40;;
16642;SDS011;8435;52.184;5.406;2023-09-12T01:35:10;28.75;;;25.65;;
16642;SDS011;8435;52.184;5.406;2023-09-12T01:37:36;28.65;;;25.65;;
16642;SDS011;8435;52.184;5.406;2023-09-12T01:40:04;29.20;;;26.08;;
16642;SDS011;8435;52.184;5.406;2023-09-12T01:42:35;28.58;;;25.55;;
16642;SDS011;8435;52.184;5.406;2023-09-12T01:45:05;28.75;;;25.48;;
16642;SDS011;8435;52.184;5.406;2023-09-12T01:47:35;28.95;;;25.10;;
16642;SDS011;8435;52.184;5.406;2023-09-12T01:50:07;29.60;;;26.40;;
16642;SDS011;8435;52.184;5.406;2023-09-12T01:52:38;28.33;;;25.25;;
16642;SDS011;8435;52.184;5.406;2023-09-12T01:55:05;28.48;;;24.02;;
16642;SDS011;8435;52.184;5.406;2023-09-12T01:57:35;29.20;;;26.13;;
16642;SDS011;8435;52.184;5.406;2023-09-12T02:00:05;27.13;;;24.27;;
16642;SDS011;8435;52.184;5.406;2023-09-12T02:02:34;26.50;;;23.58;;
16642;SDS011;8435;52.184;5.406;2023-09-12T02:05:06;25.95;;;23.20;;
16642;SDS011;8435;52.184;5.406;2023-09-12T02:07:37;26.42;;;23.65;;
16642;SDS011;8435;52.184;5.406;2023-09-12T02:10:06;27.27;;;24.33;;
16642;SDS011;8435;52.184;5.406;2023-09-12T02:12:34;25.90;;;22.65;;
16642;SDS011;8435;52.184;5.406;2023-09-12T02:15:01;26.65;;;23.88;;
16642;SDS011;8435;52.184;5.406;2023-09-12T02:17:30;27.77;;;24.75;;
16642;SDS011;8435;52.184;5.406;2023-09-12T02:19:57;27.95;;;24.73;;
16642;SDS011;8435;52.184;5.406;2023-09-12T02:22:26;25.58;;;22.85;;
16642;SDS011;8435;52.184;5.406;2023-09-12T02:24:53;26.58;;;23.55;;
16642;SDS011;8435;52.184;5.406;2023-09-12T02:27:20;28.42;;;25.02;;
16642;SDS011;8435;52.184;5.406;2023-09-12T02:29:46;28.15;;;24.45;;
16642;SDS011;8435;52.184;5.406;2023-09-12T02:32:14;27.00;;;24.15;;
16642;SDS011;8435;52.184;5.406;2023-09-12T02:34:42;29.05;;;24.58;;
16642;SDS011;8435;52.184;5.406;2023-09-12T02:37:09;27.85;;;24.85;;
16642;SDS011;8435;52.184;5.406;2023-09-12T02:39:36;26.63;;;23.83;;
16642;SDS011;8435;52.184;5.406;2023-09-12T02:42:03;27.65;;;24.67;;
16642;SDS011;8435;52.184;5.406;2023-09-12T02:44:30;27.88;;;25.00;;
16642;SDS011;8435;52.184;5.406;2023-09-12T02:46:57;25.83;;;23.08;;
16642;SDS011;8435;52.184;5.406;2023-09-12T02:49:24;26.13;;;23.00;;
16642;SDS011;8435;52.184;5.406;2023-09-12T02:51:52;28.38;;;24.35;;
16642;SDS011;8435;52.184;5.406;2023-09-12T02:54:19;26.20;;;23.05;;
16642;SDS011;8435;52.184;5.406;2023-09-12T02:56:46;27.35;;;24.45;;
16642;SDS011;8435;52.184;5.406;2023-09-12T02:59:12;25.75;;;22.85;;
16642;SDS011;8435;52.184;5.406;2023-09-12T03:01:39;24.30;;;21.75;;
16642;SDS011;8435;52.184;5.406;2023-09-12T03:04:06;24.52;;;21.85;;
16642;SDS011;8435;52.184;5.406;2023-09-12T03:06:33;25.20;;;22.50;;
16642;SDS011;8435;52.184;5.406;2023-09-12T03:09:02;26.98;;;23.98;;
16642;SDS011;8435;52.184;5.406;2023-09-12T03:11:29;27.30;;;24.48;;
16642;SDS011;8435;52.184;5.406;2023-09-12T03:13:55;29.65;;;25.30;;
16642;SDS011;8435;52.184;5.406;2023-09-12T03:16:22;27.67;;;23.52;;
16642;SDS011;8435;52.184;5.406;2023-09-12T03:18:49;27.95;;;24.75;;
16642;SDS011;8435;52.184;5.406;2023-09-12T03:21:16;27.10;;;24.23;;
16642;SDS011;8435;52.184;5.406;2023-09-12T03:23:43;28.05;;;24.95;;
16642;SDS011;8435;52.184;5.406;2023-09-12T03:26:11;27.08;;;24.13;;
16642;SDS011;8435;52.184;5.406;2023-09-12T03:28:38;26.02;;;23.33;;
16642;SDS011;8435;52.184;5.406;2023-09-12T03:31:08;26.45;;;23.65;;
16642;SDS011;8435;52.184;5.406;2023-09-12T03:33:38;26.33;;;23.60;;
16642;SDS011;8435;52.184;5.406;2023-09-12T03:36:06;27.40;;;24.15;;
16642;SDS011;8435;52.184;5.406;2023-09-12T03:38:33;27.52;;;24.58;;
16642;SDS011;8435;52.184;5.406;2023-09-12T03:41:00;26.08;;;23.27;;
16642;SDS011;8435;52.184;5.406;2023-09-12T03:43:29;27.48;;;24.65;;
16642;SDS011;8435;52.184;5.406;2023-09-12T03:45:56;29.08;;;25.30;;
16642;SDS011;8435;52.184;5.406;2023-09-12T03:48:25;27.35;;;24.40;;
16642;SDS011;8435;52.184;5.406;2023-09-12T03:50:52;29.55;;;25.92;;
16642;SDS011;8435;52.184;5.406;2023-09-12T03:53:19;27.63;;;24.75;;
16642;SDS011;8435;52.184;5.406;2023-09-12T03:55:46;28.15;;;24.88;;
16642;SDS011;8435;52.184;5.406;2023-09-12T03:58:12;27.63;;;24.70;;
16642;SDS011;8435;52.184;5.406;2023-09-12T04:00:41;29.35;;;26.08;;
16642;SDS011;8435;52.184;5.406;2023-09-12T04:03:08;28.10;;;25.17;;
16642;SDS011;8435;52.184;5.406;2023-09-12T04:05:35;29.52;;;26.10;;
16642;SDS011;8435;52.184;5.406;2023-09-12T04:08:02;29.67;;;26.08;;
16642;SDS011;8435;52.184;5.406;2023-09-12T04:10:29;26.95;;;24.10;;
16642;SDS011;8435;52.184;5.406;2023-09-12T04:12:57;27.50;;;24.42;;
16642;SDS011;8435;52.184;5.406;2023-09-12T04:15:24;28.58;;;24.73;;
16642;SDS011;8435;52.184;5.406;2023-09-12T04:17:52;28.15;;;25.27;;
16642;SDS011;8435;52.184;5.406;2023-09-12T04:20:19;28.83;;;25.75;;
16642;SDS011;8435;52.184;5.406;2023-09-12T04:22:46;29.20;;;25.48;;
16642;SDS011;8435;52.184;5.406;2023-09-12T04:25:13;29.83;;;26.33;;
16642;SDS011;8435;52.184;5.406;2023-09-12T04:27:40;30.50;;;27.27;;
16642;SDS011;8435;52.184;5.406;2023-09-12T04:30:10;30.50;;;26.02;;
16642;SDS011;8435;52.184;5.406;2023-09-12T04:32:38;31.58;;;27.10;;
16642;SDS011;8435;52.184;5.406;2023-09-12T04:35:06;30.85;;;26.88;;
16642;SDS011;8435;52.184;5.406;2023-09-12T04:37:33;32.20;;;28.60;;
16642;SDS011;8435;52.184;5.406;2023-09-12T04:40:00;30.40;;;26.65;;
16642;SDS011;8435;52.184;5.406;2023-09-12T04:42:30;29.65;;;26.38;;
16642;SDS011;8435;52.184;5.406;2023-09-12T04:44:57;30.85;;;26.83;;
16642;SDS011;8435;52.184;5.406;2023-09-12T04:47:23;30.70;;;26.17;;
16642;SDS011;8435;52.184;5.406;2023-09-12T04:49:50;30.60;;;27.23;;
16642;SDS011;8435;52.184;5.406;2023-09-12T04:52:19;34.58;;;29.90;;
16642;SDS011;8435;52.184;5.406;2023-09-12T04:54:46;32.90;;;28.30;;
16642;SDS011;8435;52.184;5.406;2023-09-12T04:57:13;32.90;;;28.67;;
16642;SDS011;8435;52.184;5.406;2023-09-12T04:59:40;34.20;;;27.42;;
16642;SDS011;8435;52.184;5.406;2023-09-12T05:02:06;31.80;;;27.42;;
16642;SDS011;8435;52.184;5.406;2023-09-12T05:04:33;32.45;;;27.75;;
16642;SDS011;8435;52.184;5.406;2023-09-12T05:07:00;29.38;;;25.52;;
16642;SDS011;8435;52.184;5.406;2023-09-12T05:09:28;33.80;;;28.05;;
16642;SDS011;8435;52.184;5.406;2023-09-12T05:11:55;33.67;;;28.38;;
16642;SDS011;8435;52.184;5.406;2023-09-12T05:14:22;32.33;;;28.17;;
16642;SDS011;8435;52.184;5.406;2023-09-12T05:16:49;29.17;;;25.88;;
16642;SDS011;8435;52.184;5.406;2023-09-12T05:19:16;30.30;;;27.00;;
16642;SDS011;8435;52.184;5.406;2023-09-12T05:21:42;33.20;;;27.05;;
16642;SDS011;8435;52.184;5.406;2023-09-12T05:24:10;33.50;;;28.08;;
16642;SDS011;8435;52.184;5.406;2023-09-12T05:26:38;33.85;;;28.52;;
16642;SDS011;8435;52.184;5.406;2023-09-12T05:29:05;30.02;;;26.67;;
16642;SDS011;8435;52.184;5.406;2023-09-12T05:31:34;30.67;;;25.50;;
16642;SDS011;8435;52.184;5.406;2023-09-12T05:34:01;31.55;;;27.42;;
16642;SDS011;8435;52.184;5.406;2023-09-12T05:36:28;30.20;;;26.00;;
16642;SDS011;8435;52.184;5.406;2023-09-12T05:38:55;28.70;;;25.60;;
16642;SDS011;8435;52.184;5.406;2023-09-12T05:41:21;32.97;;;27.08;;
16642;SDS011;8435;52.184;5.406;2023-09-12T05:43:50;29.67;;;24.90;;
16642;SDS011;8435;52.184;5.406;2023-09-12T05:46:16;31.73;;;27.40;;
16642;SDS011;8435;52.184;5.406;2023-09-12T05:48:46;32.30;;;27.65;;
16642;SDS011;8435;52.184;5.406;2023-09-12T05:51:13;33.53;;;29.00;;
16642;SDS011;8435;52.184;5.406;2023-09-12T05:53:40;33.92;;;29.45;;
16642;SDS011;8435;52.184;5.406;2023-09-12T05:56:07;32.30;;;28.52;;
16642;SDS011;8435;52.184;5.406;2023-09-12T05:58:33;33.30;;;29.20;;
16642;SDS011;8435;52.184;5.406;2023-09-12T06:01:02;30.10;;;26.27;;
16642;SDS011;8435;52.184;5.406;2023-09-12T06:03:29;31.95;;;28.38;;
16642;SDS011;8435;52.184;5.406;2023-09-12T06:05:56;37.97;;;31.77;;
16642;SDS011;8435;52.184;5.406;2023-09-12T06:08:22;35.92;;;29.50;;
16642;SDS011;8435;52.184;5.406;2023-09-12T06:10:49;36.30;;;30.40;;
16642;SDS011;8435;52.184;5.406;2023-09-12T06:13:18;40.25;;;30.88;;
16642;SDS011;8435;52.184;5.406;2023-09-12T06:15:45;36.95;;;31.48;;
16642;SDS011;8435;52.184;5.406;2023-09-12T06:18:14;36.88;;;29.88;;
16642;SDS011;8435;52.184;5.406;2023-09-12T06:20:43;35.70;;;30.63;;
16642;SDS011;8435;52.184;5.406;2023-09-12T06:23:10;38.45;;;30.73;;
16642;SDS011;8435;52.184;5.406;2023-09-12T06:25:37;35.17;;;29.15;;
16642;SDS011;8435;52.184;5.406;2023-09-12T06:28:05;37.35;;;30.73;;
16642;SDS011;8435;52.184;5.406;2023-09-12T06:30:34;40.05;;;30.48;;
16642;SDS011;8435;52.184;5.406;2023-09-12T06:33:01;39.90;;;30.90;;
16642;SDS011;8435;52.184;5.406;2023-09-12T06:35:30;35.15;;;29.75;;
16642;SDS011;8435;52.184;5.406;2023-09-12T06:37:58;34.95;;;29.30;;
16642;SDS011;8435;52.184;5.406;2023-09-12T06:40:25;33.63;;;28.33;;
16642;SDS011;8435;52.184;5.406;2023-09-12T06:42:51;36.22;;;32.10;;
16642;SDS011;8435;52.184;5.406;2023-09-12T06:45:18;39.10;;;31.55;;
16642;SDS011;8435;52.184;5.406;2023-09-12T06:47:47;36.25;;;30.30;;
16642;SDS011;8435;52.184;5.406;2023-09-12T06:50:14;36.75;;;29.50;;
16642;SDS011;8435;52.184;5.406;2023-09-12T06:52:43;34.17;;;28.77;;
16642;SDS011;8435;52.184;5.406;2023-09-12T06:55:09;33.22;;;27.52;;
16642;SDS011;8435;52.184;5.406;2023-09-12T06:57:36;30.65;;;26.40;;
16642;SDS011;8435;52.184;5.406;2023-09-12T07:00:03;33.95;;;27.65;;
16642;SDS011;8435;52.184;5.406;2023-09-12T07:02:32;35.42;;;28.10;;
16642;SDS011;8435;52.184;5.406;2023-09-12T07:04:59;34.88;;;27.90;;
16642;SDS011;8435;52.184;5.406;2023-09-12T07:07:26;34.67;;;28.20;;
16642;SDS011;8435;52.184;5.406;2023-09-12T07:09:54;34.13;;;28.88;;
16642;SDS011;8435;52.184;5.406;2023-09-12T07:12:21;33.78;;;26.95;;
16642;SDS011;8435;52.184;5.406;2023-09-12T07:14:48;33.78;;;28.90;;
16642;SDS011;8435;52.184;5.406;2023-09-12T07:17:16;31.45;;;25.70;;
16642;SDS011;8435;52.184;5.406;2023-09-12T07:19:43;33.17;;;26.05;;
16642;SDS011;8435;52.184;5.406;2023-09-12T07:22:10;28.02;;;23.90;;
16642;SDS011;8435;52.184;5.406;2023-09-12T07:24:37;28.88;;;23.52;;
16642;SDS011;8435;52.184;5.406;2023-09-12T07:27:05;30.30;;;24.63;;
16642;SDS011;8435;52.184;5.406;2023-09-12T07:29:32;26.25;;;22.77;;
16642;SDS011;8435;52.184;5.406;2023-09-12T07:31:59;26.95;;;23.23;;
16642;SDS011;8435;52.184;5.406;2023-09-12T07:34:26;23.75;;;20.38;;
16642;SDS011;8435;52.184;5.406;2023-09-12T07:36:53;26.30;;;22.05;;
16642;SDS011;8435;52.184;5.406;2023-09-12T07:39:19;26.50;;;22.83;;
16642;SDS011;8435;52.184;5.406;2023-09-12T07:41:46;25.55;;;21.00;;
16642;SDS011;8435;52.184;5.406;2023-09-12T07:44:15;22.58;;;20.17;;
16642;SDS011;8435;52.184;5.406;2023-09-12T07:46:42;25.05;;;21.92;;
16642;SDS011;8435;52.184;5.406;2023-09-12T07:49:09;25.00;;;21.65;;
16642;SDS011;8435;52.184;5.406;2023-09-12T07:51:36;26.38;;;21.17;;
16642;SDS011;8435;52.184;5.406;2023-09-12T07:54:03;26.35;;;22.05;;
16642;SDS011;8435;52.184;5.406;2023-09-12T07:56:30;25.73;;;21.65;;
16642;SDS011;8435;52.184;5.406;2023-09-12T07:58:59;24.80;;;20.80;;
16642;SDS011;8435;52.184;5.406;2023-09-12T08:01:27;27.33;;;20.42;;
16642;SDS011;8435;52.184;5.406;2023-09-12T08:03:54;23.00;;;19.88;;
16642;SDS011;8435;52.184;5.406;2023-09-12T08:06:22;22.80;;;19.70;;
16642;SDS011;8435;52.184;5.406;2023-09-12T08:08:53;21.00;;;18.75;;
16642;SDS011;8435;52.184;5.406;2023-09-12T08:11:20;27.83;;;20.67;;
16642;SDS011;8435;52.184;5.406;2023-09-12T08:13:48;23.83;;;19.88;;
16642;SDS011;8435;52.184;5.406;2023-09-12T08:16:18;23.67;;;20.50;;
16642;SDS011;8435;52.184;5.406;2023-09-12T08:18:46;23.40;;;19.92;;
16642;SDS011;8435;52.184;5.406;2023-09-12T08:21:13;25.75;;;20.38;;
16642;SDS011;8435;52.184;5.406;2023-09-12T08:23:40;23.50;;;21.00;;
16642;SDS011;8435;52.184;5.406;2023-09-12T08:26:09;26.00;;;20.77;;
16642;SDS011;8435;52.184;5.406;2023-09-12T08:28:36;23.95;;;20.08;;
16642;SDS011;8435;52.184;5.406;2023-09-12T08:31:03;24.13;;;20.05;;
16642;SDS011;8435;52.184;5.406;2023-09-12T08:33:30;22.50;;;19.95;;
16642;SDS011;8435;52.184;5.406;2023-09-12T08:35:59;23.40;;;20.70;;
16642;SDS011;8435;52.184;5.406;2023-09-12T08:38:29;22.30;;;19.77;;
16642;SDS011;8435;52.184;5.406;2023-09-12T08:40:59;23.35;;;20.20;;
16642;SDS011;8435;52.184;5.406;2023-09-12T08:43:26;22.08;;;19.38;;
16642;SDS011;8435;52.184;5.406;2023-09-12T08:45:53;20.23;;;18.00;;
16642;SDS011;8435;52.184;5.406;2023-09-12T08:48:20;22.98;;;20.52;;
16642;SDS011;8435;52.184;5.406;2023-09-12T08:50:48;22.17;;;19.88;;
16642;SDS011;8435;52.184;5.406;2023-09-12T08:53:20;21.90;;;19.50;;
16642;SDS011;8435;52.184;5.406;2023-09-12T08:55:47;22.20;;;19.77;;
16642;SDS011;8435;52.184;5.406;2023-09-12T08:58:14;22.67;;;20.25;;
16642;SDS011;8435;52.184;5.406;2023-09-12T09:00:44;21.77;;;19.50;;
16642;SDS011;8435;52.184;5.406;2023-09-12T09:03:11;22.98;;;20.52;;
16642;SDS011;8435;52.184;5.406;2023-09-12T09:05:38;22.27;;;20.00;;
16642;SDS011;8435;52.184;5.406;2023-09-12T09:08:07;21.90;;;19.55;;
16642;SDS011;8435;52.184;5.406;2023-09-12T09:10:38;21.63;;;18.83;;
16642;SDS011;8435;52.184;5.406;2023-09-12T09:13:04;21.70;;;19.42;;
16642;SDS011;8435;52.184;5.406;2023-09-12T09:15:31;23.85;;;20.95;;
16642;SDS011;8435;52.184;5.406;2023-09-12T09:18:05;22.98;;;20.52;;
16642;SDS011;8435;52.184;5.406;2023-09-12T09:20:33;21.98;;;19.73;;
16642;SDS011;8435;52.184;5.406;2023-09-12T09:23:02;23.95;;;21.55;;
16642;SDS011;8435;52.184;5.406;2023-09-12T09:25:31;24.05;;;21.38;;
16642;SDS011;8435;52.184;5.406;2023-09-12T09:28:00;27.25;;;20.25;;
16642;SDS011;8435;52.184;5.406;2023-09-12T09:30:38;21.65;;;19.30;;
16642;SDS011;8435;52.184;5.406;2023-09-12T09:33:07;20.63;;;18.63;;
16642;SDS011;8435;52.184;5.406;2023-09-12T09:35:34;19.15;;;17.33;;
16642;SDS011;8435;52.184;5.406;2023-09-12T09:38:02;21.38;;;19.23;;
16642;SDS011;8435;52.184;5.406;2023-09-12T09:40:31;22.70;;;20.50;;
16642;SDS011;8435;52.184;5.406;2023-09-12T09:43:00;23.70;;;21.38;;
16642;SDS011;8435;52.184;5.406;2023-09-12T09:45:30;21.35;;;19.08;;
16642;SDS011;8435;52.184;5.406;2023-09-12T09:47:57;21.02;;;18.92;;
16642;SDS011;8435;52.184;5.406;2023-09-12T09:50:25;20.77;;;18.60;;
16642;SDS011;8435;52.184;5.406;2023-09-12T09:52:53;21.58;;;19.13;;
16642;SDS011;8435;52.184;5.406;2023-09-12T09:55:21;21.45;;;19.35;;
16642;SDS011;8435;52.184;5.406;2023-09-12T09:57:48;22.75;;;20.23;;
16642;SDS011;8435;52.184;5.406;2023-09-12T10:00:25;21.63;;;19.52;;
16642;SDS011;8435;52.184;5.406;2023-09-12T10:02:54;20.40;;;18.40;;
16642;SDS011;8435;52.184;5.406;2023-09-12T10:05:22;21.85;;;19.63;;
16642;SDS011;8435;52.184;5.406;2023-09-12T10:07:49;20.98;;;18.98;;
16642;SDS011;8435;52.184;5.406;2023-09-12T10:10:17;19.98;;;17.88;;
16642;SDS011;8435;52.184;5.406;2023-09-12T10:12:48;19.40;;;17.48;;
16642;SDS011;8435;52.184;5.406;2023-09-12T10:15:17;19.65;;;17.55;;
16642;SDS011;8435;52.184;5.406;2023-09-12T10:17:50;20.63;;;18.42;;
16642;SDS011;8435;52.184;5.406;2023-09-12T10:20:22;20.45;;;18.25;;
16642;SDS011;8435;52.184;5.406;2023-09-12T10:22:56;20.40;;;18.42;;
16642;SDS011;8435;52.184;5.406;2023-09-12T10:25:28;19.38;;;17.58;;
16642;SDS011;8435;52.184;5.406;2023-09-12T10:27:57;20.45;;;18.25;;
16642;SDS011;8435;52.184;5.406;2023-09-12T10:30:24;20.52;;;18.45;;
16642;SDS011;8435;52.184;5.406;2023-09-12T10:32:53;20.63;;;18.70;;
16642;SDS011;8435;52.184;5.406;2023-09-12T10:35:22;22.00;;;19.63;;
16642;SDS011;8435;52.184;5.406;2023-09-12T10:38:01;20.63;;;18.73;;
16642;SDS011;8435;52.184;5.406;2023-09-12T10:40:32;23.55;;;20.33;;
16642;SDS011;8435;52.184;5.406;2023-09-12T10:43:02;22.50;;;19.65;;
16642;SDS011;8435;52.184;5.406;2023-09-12T10:45:33;18.70;;;16.88;;
16642;SDS011;8435;52.184;5.406;2023-09-12T10:48:01;18.25;;;16.40;;
16642;SDS011;8435;52.184;5.406;2023-09-12T10:50:29;17.08;;;15.27;;
16642;SDS011;8435;52.184;5.406;2023-09-12T10:52:56;18.90;;;17.10;;
16642;SDS011;8435;52.184;5.406;2023-09-12T10:55:36;19.52;;;17.45;;
16642;SDS011;8435;52.184;5.406;2023-09-12T10:58:07;19.92;;;17.92;;
16642;SDS011;8435;52.184;5.406;2023-09-12T11:00:35;17.48;;;15.70;;
16642;SDS011;8435;52.184;5.406;2023-09-12T11:06:02;18.15;;;16.25;;
16642;SDS011;8435;52.184;5.406;2023-09-12T11:08:47;18.92;;;17.08;;
16642;SDS011;8435;52.184;5.406;2023-09-12T11:11:45;20.10;;;18.10;;
16642;SDS011;8435;52.184;5.406;2023-09-12T11:14:12;19.30;;;17.30;;
16642;SDS011;8435;52.184;5.406;2023-09-12T11:17:19;17.92;;;16.30;;
16642;SDS011;8435;52.184;5.406;2023-09-12T11:19:47;17.45;;;15.75;;
16642;SDS011;8435;52.184;5.406;2023-09-12T11:22:24;18.80;;;16.75;;
16642;SDS011;8435;52.184;5.406;2023-09-12T11:24:55;16.90;;;15.20;;
16642;SDS011;8435;52.184;5.406;2023-09-12T11:27:22;17.30;;;15.50;;
16642;SDS011;8435;52.184;5.406;2023-09-12T11:29:50;16.45;;;15.02;;
16642;SDS011;8435;52.184;5.406;2023-09-12T11:32:25;16.80;;;15.15;;
16642;SDS011;8435;52.184;5.406;2023-09-12T11:34:53;20.58;;;18.67;;
16642;SDS011;8435;52.184;5.406;2023-09-12T11:37:23;19.05;;;16.70;;
16642;SDS011;8435;52.184;5.406;2023-09-12T11:39:51;16.48;;;14.93;;
16642;SDS011;8435;52.184;5.406;2023-09-12T11:42:20;16.83;;;15.23;;
16642;SDS011;8435;52.184;5.406;2023-09-12T11:44:50;12.32;;;11.13;;
16642;SDS011;8435;52.184;5.406;2023-09-12T11:47:17;12.65;;;11.43;;
16642;SDS011;8435;52.184;5.406;2023-09-12T11:49:45;11.82;;;10.73;;
16642;SDS011;8435;52.184;5.406;2023-09-12T11:52:12;12.15;;;10.98;;
16642;SDS011;8435;52.184;5.406;2023-09-12T11:54:41;11.98;;;10.88;;
16642;SDS011;8435;52.184;5.406;2023-09-12T11:57:10;11.52;;;10.43;;
16642;SDS011;8435;52.184;5.406;2023-09-12T11:59:40;11.27;;;10.05;;
16642;SDS011;8435;52.184;5.406;2023-09-12T12:02:10;10.48;;;9.48;;
16642;SDS011;8435;52.184;5.406;2023-09-12T12:04:37;11.57;;;10.48;;
16642;SDS011;8435;52.184;5.406;2023-09-12T12:07:05;11.98;;;10.43;;
16642;SDS011;8435;52.184;5.406;2023-09-12T12:09:33;11.50;;;10.50;;
16642;SDS011;8435;52.184;5.406;2023-09-12T12:12:03;10.70;;;9.70;;
16642;SDS011;8435;52.184;5.406;2023-09-12T12:14:34;11.10;;;10.10;;
16642;SDS011;8435;52.184;5.406;2023-09-12T12:17:06;10.45;;;9.57;;
16642;SDS011;8435;52.184;5.406;2023-09-12T12:19:36;10.50;;;9.50;;
16642;SDS011;8435;52.184;5.406;2023-09-12T12:22:03;10.65;;;9.65;;
16642;SDS011;8435;52.184;5.406;2023-09-12T12:24:38;11.25;;;10.25;;
16642;SDS011;8435;52.184;5.406;2023-09-12T12:27:07;10.18;;;9.13;;
16642;SDS011;8435;52.184;5.406;2023-09-12T12:29:36;9.55;;;8.65;;
16642;SDS011;8435;52.184;5.406;2023-09-12T12:32:07;8.60;;;7.80;;
16642;SDS011;8435;52.184;5.406;2023-09-12T12:34:36;9.55;;;6.97;;
16642;SDS011;8435;52.184;5.406;2023-09-12T12:37:04;7.70;;;6.95;;
16642;SDS011;8435;52.184;5.406;2023-09-12T12:39:31;6.97;;;6.38;;
16642;SDS011;8435;52.184;5.406;2023-09-12T12:41:58;5.93;;;5.32;;
16642;SDS011;8435;52.184;5.406;2023-09-12T12:44:32;6.63;;;5.97;;
16642;SDS011;8435;52.184;5.406;2023-09-12T12:47:03;7.07;;;6.43;;
16642;SDS011;8435;52.184;5.406;2023-09-12T12:49:36;9.10;;;8.30;;
16642;SDS011;8435;52.184;5.406;2023-09-12T12:52:04;10.27;;;7.85;;
16642;SDS011;8435;52.184;5.406;2023-09-12T12:54:32;8.25;;;7.45;;
16642;SDS011;8435;52.184;5.406;2023-09-12T12:56:59;8.45;;;7.63;;
16642;SDS011;8435;52.184;5.406;2023-09-12T12:59:27;9.70;;;8.80;;
16642;SDS011;8435;52.184;5.406;2023-09-12T13:01:59;13.00;;;11.45;;
16642;SDS011;8435;52.184;5.406;2023-09-12T13:04:28;14.43;;;13.02;;
16642;SDS011;8435;52.184;5.406;2023-09-12T13:07:03;12.80;;;11.57;;
16642;SDS011;8435;52.184;5.406;2023-09-12T13:09:30;15.73;;;14.23;;
16642;SDS011;8435;52.184;5.406;2023-09-12T13:11:57;15.30;;;13.80;;
16642;SDS011;8435;52.184;5.406;2023-09-12T13:14:24;15.02;;;13.65;;
16642;SDS011;8435;52.184;5.406;2023-09-12T13:16:56;15.45;;;13.88;;
16642;SDS011;8435;52.184;5.406;2023-09-12T13:19:23;15.45;;;13.90;;
16642;SDS011;8435;52.184;5.406;2023-09-12T13:21:51;16.60;;;14.35;;
16642;SDS011;8435;52.184;5.406;2023-09-12T13:24:18;15.77;;;13.25;;
16642;SDS011;8435;52.184;5.406;2023-09-12T13:26:45;11.85;;;10.65;;
16642;SDS011;8435;52.184;5.406;2023-09-12T13:29:14;10.40;;;9.30;;
16642;SDS011;8435;52.184;5.406;2023-09-12T13:31:41;10.68;;;9.57;;
16642;SDS011;8435;52.184;5.406;2023-09-12T13:34:08;10.90;;;9.80;;
16642;SDS011;8435;52.184;5.406;2023-09-12T13:36:38;10.63;;;9.63;;
16642;SDS011;8435;52.184;5.406;2023-09-12T13:39:06;11.45;;;9.73;;
16642;SDS011;8435;52.184;5.406;2023-09-12T13:41:33;10.07;;;9.18;;
16642;SDS011;8435;52.184;5.406;2023-09-12T13:44:03;9.63;;;8.80;;
16642;SDS011;8435;52.184;5.406;2023-09-12T13:46:30;12.40;;;8.85;;
16642;SDS011;8435;52.184;5.406;2023-09-12T13:48:57;12.25;;;9.50;;
16642;SDS011;8435;52.184;5.406;2023-09-12T13:51:28;11.65;;;10.55;;
16642;SDS011;8435;52.184;5.406;2023-09-12T13:53:55;11.60;;;10.43;;
16642;SDS011;8435;52.184;5.406;2023-09-12T13:56:23;12.48;;;11.13;;
16642;SDS011;8435;52.184;5.406;2023-09-12T13:58:50;12.43;;;11.13;;
16642;SDS011;8435;52.184;5.406;2023-09-12T14:01:18;13.18;;;11.77;;
16642;SDS011;8435;52.184;5.406;2023-09-12T14:03:45;14.13;;;12.32;;
16642;SDS011;8435;52.184;5.406;2023-09-12T14:06:12;13.10;;;11.80;;
16642;SDS011;8435;52.184;5.406;2023-09-12T14:08:41;13.75;;;12.48;;
16642;SDS011;8435;52.184;5.406;2023-09-12T14:11:11;13.23;;;11.93;;
16642;SDS011;8435;52.184;5.406;2023-09-12T14:13:42;10.43;;;9.43;;
16642;SDS011;8435;52.184;5.406;2023-09-12T14:16:09;11.23;;;10.13;;
16642;SDS011;8435;52.184;5.406;2023-09-12T14:18:38;9.20;;;8.30;;
16642;SDS011;8435;52.184;5.406;2023-09-12T14:21:05;9.90;;;9.07;;
16642;SDS011;8435;52.184;5.406;2023-09-12T14:23:32;9.95;;;8.95;;
16642;SDS011;8435;52.184;5.406;2023-09-12T14:25:59;9.48;;;8.57;;
16642;SDS011;8435;52.184;5.406;2023-09-12T14:28:26;11.10;;;10.10;;
16642;SDS011;8435;52.184;5.406;2023-09-12T14:30:55;10.57;;;9.55;;
16642;SDS011;8435;52.184;5.406;2023-09-12T14:33:21;11.15;;;10.10;;
16642;SDS011;8435;52.184;5.406;2023-09-12T14:35:48;10.60;;;9.55;;
16642;SDS011;8435;52.184;5.406;2023-09-12T14:38:15;10.40;;;9.43;;
16642;SDS011;8435;52.184;5.406;2023-09-12T14:40:45;8.93;;;8.02;;
16642;SDS011;8435;52.184;5.406;2023-09-12T14:43:13;11.25;;;10.05;;
16642;SDS011;8435;52.184;5.406;2023-09-12T14:45:40;9.85;;;8.88;;